sensor_id;sensor_type;location;lat;lon;timestamp;P1;durP1;ratioP1;P2;durP2;ratioP2
52618;SDS011;38513;53.234;6.568;2023-06-24T00:00:42;15.73;;;9.68;;
52618;SDS011;38513;53.234;6.568;2023-06-24T00:03:08;14.90;;;9.82;;
52618;SDS011;38513;53.234;6.568;2023-06-24T00:05:37;15.35;;;10.15;;
52618;SDS011;38513;53.234;6.568;2023-06-24T00:08:04;15.27;;;10.57;;
52618;SDS011;38513;53.234;6.568;2023-06-24T00:10:32;16.00;;;10.57;;
52618;SDS011;38513;53.234;6.568;2023-06-24T00:12:58;16.48;;;10.95;;
52618;SDS011;38513;53.234;6.568;2023-06-24T00:15:26;15.93;;;10.10;;
52618;SDS011;38513;53.234;6.568;2023-06-24T00:17:52;15.68;;;10.75;;
52618;SDS011;38513;53.234;6.568;2023-06-24T00:20:18;15.48;;;10.52;;
52618;SDS011;38513;53.234;6.568;2023-06-24T00:22:45;15.55;;;10.00;;
52618;SDS011;38513;53.234;6.568;2023-06-24T00:25:14;16.73;;;11.23;;
52618;SDS011;38513;53.234;6.568;2023-06-24T00:27:40;16.30;;;11.35;;
52618;SDS011;38513;53.234;6.568;2023-06-24T00:30:08;15.15;;;11.02;;
52618;SDS011;38513;53.234;6.568;2023-06-24T00:32:34;16.77;;;11.27;;
52618;SDS011;38513;53.234;6.568;2023-06-24T00:35:00;16.73;;;11.47;;
52618;SDS011;38513;53.234;6.568;2023-06-24T00:37:26;17.33;;;11.50;;
52618;SDS011;38513;53.234;6.568;2023-06-24T00:39:52;16.20;;;11.52;;
52618;SDS011;38513;53.234;6.568;2023-06-24T00:42:18;16.30;;;11.32;;
52618;SDS011;38513;53.234;6.568;2023-06-24T00:44:45;17.73;;;12.13;;
52618;SDS011;38513;53.234;6.568;2023-06-24T00:47:13;15.93;;;11.40;;
52618;SDS011;38513;53.234;6.568;2023-06-24T00:49:39;16.40;;;10.93;;
52618;SDS011;38513;53.234;6.568;2023-06-24T00:52:05;17.73;;;12.15;;
52618;SDS011;38513;53.234;6.568;2023-06-24T00:54:32;16.00;;;11.57;;
52618;SDS011;38513;53.234;6.568;2023-06-24T00:56:58;15.02;;;11.05;;
52618;SDS011;38513;53.234;6.568;2023-06-24T00:59:27;16.88;;;11.82;;
52618;SDS011;38513;53.234;6.568;2023-06-24T01:01:55;15.83;;;11.50;;
52618;SDS011;38513;53.234;6.568;2023-06-24T01:04:21;17.60;;;11.90;;
52618;SDS011;38513;53.234;6.568;2023-06-24T01:06:53;18.27;;;12.30;;
52618;SDS011;38513;53.234;6.568;2023-06-24T01:09:19;14.73;;;10.20;;
52618;SDS011;38513;53.234;6.568;2023-06-24T01:11:45;15.52;;;10.85;;
52618;SDS011;38513;53.234;6.568;2023-06-24T01:14:11;16.67;;;11.57;;
52618;SDS011;38513;53.234;6.568;2023-06-24T01:16:42;17.17;;;11.73;;
52618;SDS011;38513;53.234;6.568;2023-06-24T01:24:26;17.25;;;11.80;;
52618;SDS011;38513;53.234;6.568;2023-06-24T01:32:48;18.80;;;12.50;;
52618;SDS011;38513;53.234;6.568;2023-06-24T01:35:16;19.38;;;11.80;;
52618;SDS011;38513;53.234;6.568;2023-06-24T01:37:46;18.83;;;12.50;;
52618;SDS011;38513;53.234;6.568;2023-06-24T01:42:50;17.17;;;11.50;;
52618;SDS011;38513;53.234;6.568;2023-06-24T01:45:19;16.95;;;11.70;;
52618;SDS011;38513;53.234;6.568;2023-06-24T01:47:47;17.67;;;11.88;;
52618;SDS011;38513;53.234;6.568;2023-06-24T01:50:17;16.45;;;11.43;;
52618;SDS011;38513;53.234;6.568;2023-06-24T01:52:45;17.60;;;11.63;;
52618;SDS011;38513;53.234;6.568;2023-06-24T01:55:13;15.88;;;11.60;;
52618;SDS011;38513;53.234;6.568;2023-06-24T01:57:41;20.13;;;13.73;;
52618;SDS011;38513;53.234;6.568;2023-06-24T02:00:08;21.03;;;14.07;;
52618;SDS011;38513;53.234;6.568;2023-06-24T02:02:35;19.33;;;13.40;;
52618;SDS011;38513;53.234;6.568;2023-06-24T02:05:02;21.88;;;14.05;;
52618;SDS011;38513;53.234;6.568;2023-06-24T02:07:28;20.08;;;13.68;;
52618;SDS011;38513;53.234;6.568;2023-06-24T02:09:55;23.92;;;13.68;;
52618;SDS011;38513;53.234;6.568;2023-06-24T02:12:21;19.00;;;13.18;;
52618;SDS011;38513;53.234;6.568;2023-06-24T02:14:48;17.40;;;12.13;;
52618;SDS011;38513;53.234;6.568;2023-06-24T02:17:15;17.85;;;12.57;;
52618;SDS011;38513;53.234;6.568;2023-06-24T02:19:41;17.48;;;12.35;;
52618;SDS011;38513;53.234;6.568;2023-06-24T02:22:08;19.35;;;12.70;;
52618;SDS011;38513;53.234;6.568;2023-06-24T02:24:35;18.25;;;12.90;;
52618;SDS011;38513;53.234;6.568;2023-06-24T02:27:02;20.70;;;14.60;;
52618;SDS011;38513;53.234;6.568;2023-06-24T02:29:29;17.67;;;13.68;;
52618;SDS011;38513;53.234;6.568;2023-06-24T02:31:56;20.73;;;14.05;;
52618;SDS011;38513;53.234;6.568;2023-06-24T02:34:25;20.83;;;14.32;;
52618;SDS011;38513;53.234;6.568;2023-06-24T02:36:51;23.38;;;15.23;;
52618;SDS011;38513;53.234;6.568;2023-06-24T02:39:17;22.48;;;14.90;;
52618;SDS011;38513;53.234;6.568;2023-06-24T02:41:46;21.13;;;15.55;;
52618;SDS011;38513;53.234;6.568;2023-06-24T02:44:14;20.55;;;15.48;;
52618;SDS011;38513;53.234;6.568;2023-06-24T02:46:41;20.80;;;14.45;;
52618;SDS011;38513;53.234;6.568;2023-06-24T02:49:08;23.30;;;14.87;;
52618;SDS011;38513;53.234;6.568;2023-06-24T02:51:35;20.48;;;15.07;;
52618;SDS011;38513;53.234;6.568;2023-06-24T02:54:02;23.77;;;14.95;;
52618;SDS011;38513;53.234;6.568;2023-06-24T02:56:28;20.65;;;14.15;;
52618;SDS011;38513;53.234;6.568;2023-06-24T02:58:55;19.38;;;13.85;;
52618;SDS011;38513;53.234;6.568;2023-06-24T03:01:21;19.63;;;14.63;;
52618;SDS011;38513;53.234;6.568;2023-06-24T03:03:51;20.83;;;14.75;;
52618;SDS011;38513;53.234;6.568;2023-06-24T03:06:18;22.85;;;15.43;;
52618;SDS011;38513;53.234;6.568;2023-06-24T03:08:45;21.02;;;15.02;;
52618;SDS011;38513;53.234;6.568;2023-06-24T03:11:15;20.80;;;15.18;;
52618;SDS011;38513;53.234;6.568;2023-06-24T03:13:43;21.70;;;14.70;;
52618;SDS011;38513;53.234;6.568;2023-06-24T03:16:09;22.55;;;15.93;;
52618;SDS011;38513;53.234;6.568;2023-06-24T03:18:43;20.05;;;14.57;;
52618;SDS011;38513;53.234;6.568;2023-06-24T03:21:09;21.50;;;14.93;;
52618;SDS011;38513;53.234;6.568;2023-06-24T03:23:36;20.00;;;14.00;;
52618;SDS011;38513;53.234;6.568;2023-06-24T03:26:02;20.48;;;13.75;;
52618;SDS011;38513;53.234;6.568;2023-06-24T03:28:32;20.95;;;13.77;;
52618;SDS011;38513;53.234;6.568;2023-06-24T03:30:58;19.30;;;13.30;;
52618;SDS011;38513;53.234;6.568;2023-06-24T03:33:24;19.17;;;12.77;;
52618;SDS011;38513;53.234;6.568;2023-06-24T03:35:52;19.63;;;13.10;;
52618;SDS011;38513;53.234;6.568;2023-06-24T03:38:18;18.20;;;12.70;;
52618;SDS011;38513;53.234;6.568;2023-06-24T03:40:44;16.90;;;12.73;;
52618;SDS011;38513;53.234;6.568;2023-06-24T03:43:10;17.42;;;11.73;;
52618;SDS011;38513;53.234;6.568;2023-06-24T03:45:36;18.83;;;12.30;;
52618;SDS011;38513;53.234;6.568;2023-06-24T03:48:02;18.75;;;12.52;;
52618;SDS011;38513;53.234;6.568;2023-06-24T03:50:28;15.73;;;11.20;;
52618;SDS011;38513;53.234;6.568;2023-06-24T03:52:55;19.20;;;11.40;;
52618;SDS011;38513;53.234;6.568;2023-06-24T03:55:21;17.98;;;11.30;;
52618;SDS011;38513;53.234;6.568;2023-06-24T03:57:47;15.60;;;11.07;;
52618;SDS011;38513;53.234;6.568;2023-06-24T04:00:13;15.43;;;11.05;;
52618;SDS011;38513;53.234;6.568;2023-06-24T04:02:45;16.67;;;10.95;;
52618;SDS011;38513;53.234;6.568;2023-06-24T04:05:12;15.93;;;10.77;;
52618;SDS011;38513;53.234;6.568;2023-06-24T04:07:38;14.68;;;10.15;;
52618;SDS011;38513;53.234;6.568;2023-06-24T04:10:04;15.48;;;10.23;;
52618;SDS011;38513;53.234;6.568;2023-06-24T04:12:37;14.13;;;10.82;;
52618;SDS011;38513;53.234;6.568;2023-06-24T04:15:03;14.48;;;10.30;;
52618;SDS011;38513;53.234;6.568;2023-06-24T04:17:33;14.23;;;9.70;;
52618;SDS011;38513;53.234;6.568;2023-06-24T04:19:59;14.82;;;10.18;;
52618;SDS011;38513;53.234;6.568;2023-06-24T04:22:25;14.43;;;9.68;;
52618;SDS011;38513;53.234;6.568;2023-06-24T04:24:51;13.10;;;9.32;;
52618;SDS011;38513;53.234;6.568;2023-06-24T04:27:17;13.80;;;9.63;;
52618;SDS011;38513;53.234;6.568;2023-06-24T04:29:44;14.70;;;9.40;;
52618;SDS011;38513;53.234;6.568;2023-06-24T04:32:10;13.65;;;9.10;;
52618;SDS011;38513;53.234;6.568;2023-06-24T04:37:12;13.90;;;9.45;;
52618;SDS011;38513;53.234;6.568;2023-06-24T04:39:38;14.67;;;9.10;;
52618;SDS011;38513;53.234;6.568;2023-06-24T04:42:04;14.68;;;9.18;;
52618;SDS011;38513;53.234;6.568;2023-06-24T04:44:30;14.70;;;9.48;;
52618;SDS011;38513;53.234;6.568;2023-06-24T04:46:56;15.57;;;9.20;;
52618;SDS011;38513;53.234;6.568;2023-06-24T04:49:25;13.53;;;9.17;;
52618;SDS011;38513;53.234;6.568;2023-06-24T04:51:51;13.43;;;9.15;;
52618;SDS011;38513;53.234;6.568;2023-06-24T04:54:17;14.27;;;9.27;;
52618;SDS011;38513;53.234;6.568;2023-06-24T04:56:43;14.48;;;9.35;;
52618;SDS011;38513;53.234;6.568;2023-06-24T04:59:10;15.05;;;9.63;;
52618;SDS011;38513;53.234;6.568;2023-06-24T05:01:37;13.07;;;9.30;;
52618;SDS011;38513;53.234;6.568;2023-06-24T05:04:03;13.77;;;9.10;;
52618;SDS011;38513;53.234;6.568;2023-06-24T05:06:29;13.00;;;9.38;;
52618;SDS011;38513;53.234;6.568;2023-06-24T05:08:55;14.93;;;9.40;;
52618;SDS011;38513;53.234;6.568;2023-06-24T05:11:21;14.50;;;9.75;;
52618;SDS011;38513;53.234;6.568;2023-06-24T05:13:47;14.57;;;9.57;;
52618;SDS011;38513;53.234;6.568;2023-06-24T05:16:13;13.02;;;9.73;;
52618;SDS011;38513;53.234;6.568;2023-06-24T05:18:42;14.65;;;10.05;;
52618;SDS011;38513;53.234;6.568;2023-06-24T05:21:08;13.32;;;9.77;;
52618;SDS011;38513;53.234;6.568;2023-06-24T05:23:34;14.63;;;9.60;;
52618;SDS011;38513;53.234;6.568;2023-06-24T05:26:00;13.68;;;9.65;;
52618;SDS011;38513;53.234;6.568;2023-06-24T05:28:26;15.00;;;9.70;;
52618;SDS011;38513;53.234;6.568;2023-06-24T05:30:52;12.50;;;9.52;;
52618;SDS011;38513;53.234;6.568;2023-06-24T05:33:18;15.13;;;9.98;;
52618;SDS011;38513;53.234;6.568;2023-06-24T05:35:44;14.65;;;9.65;;
52618;SDS011;38513;53.234;6.568;2023-06-24T05:38:10;15.02;;;9.45;;
52618;SDS011;38513;53.234;6.568;2023-06-24T05:40:36;15.07;;;9.33;;
52618;SDS011;38513;53.234;6.568;2023-06-24T05:43:03;13.23;;;8.75;;
52618;SDS011;38513;53.234;6.568;2023-06-24T05:45:29;13.68;;;9.45;;
52618;SDS011;38513;53.234;6.568;2023-06-24T05:47:55;13.77;;;9.43;;
52618;SDS011;38513;53.234;6.568;2023-06-24T05:50:21;13.00;;;9.10;;
52618;SDS011;38513;53.234;6.568;2023-06-24T05:52:47;13.93;;;8.77;;
52618;SDS011;38513;53.234;6.568;2023-06-24T05:55:13;12.20;;;9.00;;
52618;SDS011;38513;53.234;6.568;2023-06-24T05:57:39;12.82;;;8.90;;
52618;SDS011;38513;53.234;6.568;2023-06-24T06:00:06;14.00;;;9.43;;
52618;SDS011;38513;53.234;6.568;2023-06-24T06:02:32;14.45;;;9.48;;
52618;SDS011;38513;53.234;6.568;2023-06-24T06:04:58;12.40;;;9.05;;
52618;SDS011;38513;53.234;6.568;2023-06-24T06:07:25;14.45;;;9.98;;
52618;SDS011;38513;53.234;6.568;2023-06-24T06:09:52;13.48;;;9.75;;
52618;SDS011;38513;53.234;6.568;2023-06-24T06:12:18;14.25;;;9.90;;
52618;SDS011;38513;53.234;6.568;2023-06-24T06:14:47;13.82;;;10.32;;
52618;SDS011;38513;53.234;6.568;2023-06-24T06:17:13;15.33;;;9.77;;
52618;SDS011;38513;53.234;6.568;2023-06-24T06:19:40;14.00;;;9.60;;
52618;SDS011;38513;53.234;6.568;2023-06-24T06:22:06;13.55;;;9.85;;
52618;SDS011;38513;53.234;6.568;2023-06-24T06:24:35;14.30;;;10.02;;
52618;SDS011;38513;53.234;6.568;2023-06-24T06:27:01;14.10;;;9.43;;
52618;SDS011;38513;53.234;6.568;2023-06-24T06:29:27;13.93;;;9.82;;
52618;SDS011;38513;53.234;6.568;2023-06-24T06:31:53;13.45;;;9.00;;
52618;SDS011;38513;53.234;6.568;2023-06-24T06:34:20;14.30;;;9.75;;
52618;SDS011;38513;53.234;6.568;2023-06-24T06:36:46;12.90;;;9.80;;
52618;SDS011;38513;53.234;6.568;2023-06-24T06:39:12;13.50;;;9.30;;
52618;SDS011;38513;53.234;6.568;2023-06-24T06:41:38;13.95;;;9.32;;
52618;SDS011;38513;53.234;6.568;2023-06-24T06:44:04;13.55;;;9.32;;
52618;SDS011;38513;53.234;6.568;2023-06-24T06:46:31;15.25;;;9.48;;
52618;SDS011;38513;53.234;6.568;2023-06-24T06:48:57;13.35;;;9.50;;
52618;SDS011;38513;53.234;6.568;2023-06-24T06:51:23;13.38;;;9.15;;
52618;SDS011;38513;53.234;6.568;2023-06-24T06:53:50;12.70;;;8.93;;
52618;SDS011;38513;53.234;6.568;2023-06-24T06:56:22;14.23;;;9.05;;
52618;SDS011;38513;53.234;6.568;2023-06-24T06:58:49;13.90;;;9.27;;
52618;SDS011;38513;53.234;6.568;2023-06-24T07:01:15;13.40;;;8.77;;
52618;SDS011;38513;53.234;6.568;2023-06-24T07:03:41;13.27;;;9.00;;
52618;SDS011;38513;53.234;6.568;2023-06-24T07:06:07;13.18;;;9.38;;
52618;SDS011;38513;53.234;6.568;2023-06-24T07:08:33;12.13;;;9.10;;
52618;SDS011;38513;53.234;6.568;2023-06-24T07:11:01;12.75;;;8.88;;
52618;SDS011;38513;53.234;6.568;2023-06-24T07:13:27;13.48;;;9.25;;
52618;SDS011;38513;53.234;6.568;2023-06-24T07:15:53;14.57;;;9.20;;
52618;SDS011;38513;53.234;6.568;2023-06-24T07:18:19;13.27;;;8.40;;
52618;SDS011;38513;53.234;6.568;2023-06-24T07:20:45;13.80;;;8.60;;
52618;SDS011;38513;53.234;6.568;2023-06-24T07:23:11;12.23;;;8.40;;
52618;SDS011;38513;53.234;6.568;2023-06-24T07:25:37;12.40;;;8.50;;
52618;SDS011;38513;53.234;6.568;2023-06-24T07:28:04;13.80;;;8.30;;
52618;SDS011;38513;53.234;6.568;2023-06-24T07:30:30;10.85;;;7.80;;
52618;SDS011;38513;53.234;6.568;2023-06-24T07:32:56;12.07;;;8.15;;
52618;SDS011;38513;53.234;6.568;2023-06-24T07:35:22;11.17;;;8.07;;
52618;SDS011;38513;53.234;6.568;2023-06-24T07:37:48;10.10;;;7.32;;
52618;SDS011;38513;53.234;6.568;2023-06-24T07:40:14;10.60;;;7.57;;
52618;SDS011;38513;53.234;6.568;2023-06-24T07:42:43;10.75;;;7.63;;
52618;SDS011;38513;53.234;6.568;2023-06-24T07:45:09;9.98;;;7.25;;
52618;SDS011;38513;53.234;6.568;2023-06-24T07:47:36;10.43;;;7.47;;
52618;SDS011;38513;53.234;6.568;2023-06-24T07:50:02;11.90;;;7.27;;
52618;SDS011;38513;53.234;6.568;2023-06-24T07:52:28;10.52;;;7.55;;
52618;SDS011;38513;53.234;6.568;2023-06-24T07:54:54;10.30;;;7.00;;
52618;SDS011;38513;53.234;6.568;2023-06-24T07:57:21;12.07;;;7.50;;
52618;SDS011;38513;53.234;6.568;2023-06-24T07:59:47;10.95;;;6.70;;
52618;SDS011;38513;53.234;6.568;2023-06-24T08:02:13;15.85;;;7.47;;
52618;SDS011;38513;53.234;6.568;2023-06-24T08:04:39;10.90;;;7.07;;
52618;SDS011;38513;53.234;6.568;2023-06-24T08:07:05;9.75;;;6.38;;
52618;SDS011;38513;53.234;6.568;2023-06-24T08:09:31;10.82;;;6.40;;
52618;SDS011;38513;53.234;6.568;2023-06-24T08:11:57;10.52;;;6.15;;
52618;SDS011;38513;53.234;6.568;2023-06-24T08:14:23;10.73;;;7.00;;
52618;SDS011;38513;53.234;6.568;2023-06-24T08:16:50;9.65;;;6.30;;
52618;SDS011;38513;53.234;6.568;2023-06-24T08:19:16;9.55;;;6.65;;
52618;SDS011;38513;53.234;6.568;2023-06-24T08:21:42;10.63;;;6.63;;
52618;SDS011;38513;53.234;6.568;2023-06-24T08:24:08;11.23;;;6.30;;
52618;SDS011;38513;53.234;6.568;2023-06-24T08:26:34;13.57;;;6.40;;
52618;SDS011;38513;53.234;6.568;2023-06-24T08:29:00;8.63;;;5.60;;
52618;SDS011;38513;53.234;6.568;2023-06-24T08:31:27;9.25;;;6.40;;
52618;SDS011;38513;53.234;6.568;2023-06-24T08:33:59;10.30;;;6.68;;
52618;SDS011;38513;53.234;6.568;2023-06-24T08:36:27;9.17;;;5.80;;
52618;SDS011;38513;53.234;6.568;2023-06-24T08:38:54;9.93;;;6.30;;
52618;SDS011;38513;53.234;6.568;2023-06-24T08:41:20;9.82;;;6.15;;
52618;SDS011;38513;53.234;6.568;2023-06-24T08:43:46;10.15;;;6.13;;
52618;SDS011;38513;53.234;6.568;2023-06-24T08:46:13;9.80;;;5.82;;
52618;SDS011;38513;53.234;6.568;2023-06-24T08:48:40;9.77;;;6.00;;
52618;SDS011;38513;53.234;6.568;2023-06-24T08:51:08;10.82;;;6.18;;
52618;SDS011;38513;53.234;6.568;2023-06-24T08:53:35;9.65;;;6.13;;
52618;SDS011;38513;53.234;6.568;2023-06-24T08:56:02;10.10;;;6.07;;
52618;SDS011;38513;53.234;6.568;2023-06-24T08:58:28;9.43;;;5.75;;
52618;SDS011;38513;53.234;6.568;2023-06-24T09:00:54;10.15;;;6.18;;
52618;SDS011;38513;53.234;6.568;2023-06-24T09:03:21;8.85;;;5.80;;
52618;SDS011;38513;53.234;6.568;2023-06-24T09:05:47;9.90;;;5.70;;
52618;SDS011;38513;53.234;6.568;2023-06-24T09:08:14;11.02;;;6.07;;
52618;SDS011;38513;53.234;6.568;2023-06-24T09:10:41;8.73;;;5.80;;
52618;SDS011;38513;53.234;6.568;2023-06-24T09:13:07;8.68;;;5.50;;
52618;SDS011;38513;53.234;6.568;2023-06-24T09:15:33;9.03;;;5.90;;
52618;SDS011;38513;53.234;6.568;2023-06-24T09:18:00;10.80;;;5.80;;
52618;SDS011;38513;53.234;6.568;2023-06-24T09:20:27;9.20;;;5.72;;
52618;SDS011;38513;53.234;6.568;2023-06-24T09:23:03;9.90;;;5.40;;
52618;SDS011;38513;53.234;6.568;2023-06-24T09:25:30;10.25;;;6.07;;
52618;SDS011;38513;53.234;6.568;2023-06-24T09:28:00;10.17;;;6.40;;
52618;SDS011;38513;53.234;6.568;2023-06-24T09:30:26;9.07;;;5.32;;
52618;SDS011;38513;53.234;6.568;2023-06-24T09:32:53;10.50;;;5.93;;
52618;SDS011;38513;53.234;6.568;2023-06-24T09:35:23;9.55;;;5.82;;
52618;SDS011;38513;53.234;6.568;2023-06-24T09:37:53;9.02;;;6.15;;
52618;SDS011;38513;53.234;6.568;2023-06-24T09:40:19;11.45;;;6.05;;
52618;SDS011;38513;53.234;6.568;2023-06-24T09:42:50;9.95;;;6.40;;
52618;SDS011;38513;53.234;6.568;2023-06-24T09:45:27;10.67;;;5.40;;
52618;SDS011;38513;53.234;6.568;2023-06-24T09:47:54;11.75;;;6.90;;
52618;SDS011;38513;53.234;6.568;2023-06-24T09:50:21;11.02;;;5.88;;
52618;SDS011;38513;53.234;6.568;2023-06-24T09:52:50;8.27;;;5.68;;
52618;SDS011;38513;53.234;6.568;2023-06-24T09:55:18;10.55;;;6.30;;
52618;SDS011;38513;53.234;6.568;2023-06-24T09:57:45;9.00;;;5.50;;
52618;SDS011;38513;53.234;6.568;2023-06-24T10:00:12;8.15;;;5.28;;
52618;SDS011;38513;53.234;6.568;2023-06-24T10:02:43;9.18;;;6.20;;
52618;SDS011;38513;53.234;6.568;2023-06-24T10:05:10;10.90;;;6.07;;
52618;SDS011;38513;53.234;6.568;2023-06-24T10:07:36;8.10;;;5.22;;
52618;SDS011;38513;53.234;6.568;2023-06-24T10:10:04;9.50;;;5.88;;
52618;SDS011;38513;53.234;6.568;2023-06-24T10:12:31;9.13;;;5.20;;
52618;SDS011;38513;53.234;6.568;2023-06-24T10:14:58;8.38;;;5.43;;
52618;SDS011;38513;53.234;6.568;2023-06-24T10:17:24;8.50;;;5.28;;
52618;SDS011;38513;53.234;6.568;2023-06-24T10:19:51;10.07;;;4.80;;
52618;SDS011;38513;53.234;6.568;2023-06-24T10:22:20;8.52;;;5.63;;
52618;SDS011;38513;53.234;6.568;2023-06-24T10:24:47;8.80;;;5.75;;
52618;SDS011;38513;53.234;6.568;2023-06-24T10:27:14;10.18;;;5.40;;
52618;SDS011;38513;53.234;6.568;2023-06-24T10:29:44;8.27;;;4.88;;
52618;SDS011;38513;53.234;6.568;2023-06-24T10:32:11;8.60;;;5.03;;
52618;SDS011;38513;53.234;6.568;2023-06-24T10:39:54;9.38;;;5.45;;
52618;SDS011;38513;53.234;6.568;2023-06-24T10:45:15;8.90;;;6.30;;
52618;SDS011;38513;53.234;6.568;2023-06-24T10:47:40;8.35;;;5.43;;
52618;SDS011;38513;53.234;6.568;2023-06-24T10:50:08;9.60;;;5.10;;
52618;SDS011;38513;53.234;6.568;2023-06-24T10:52:38;7.50;;;4.70;;
52618;SDS011;38513;53.234;6.568;2023-06-24T10:55:04;8.18;;;4.88;;
52618;SDS011;38513;53.234;6.568;2023-06-24T10:57:32;9.13;;;5.00;;
52618;SDS011;38513;53.234;6.568;2023-06-24T10:59:58;8.30;;;5.05;;
52618;SDS011;38513;53.234;6.568;2023-06-24T11:02:29;9.30;;;5.90;;
52618;SDS011;38513;53.234;6.568;2023-06-24T11:04:57;10.63;;;6.13;;
52618;SDS011;38513;53.234;6.568;2023-06-24T11:07:30;8.82;;;5.65;;
52618;SDS011;38513;53.234;6.568;2023-06-24T11:12:33;8.98;;;4.80;;
52618;SDS011;38513;53.234;6.568;2023-06-24T11:15:04;7.70;;;4.60;;
52618;SDS011;38513;53.234;6.568;2023-06-24T11:17:30;8.10;;;4.77;;
52618;SDS011;38513;53.234;6.568;2023-06-24T11:19:57;9.32;;;4.80;;
52618;SDS011;38513;53.234;6.568;2023-06-24T11:22:24;8.15;;;4.85;;
52618;SDS011;38513;53.234;6.568;2023-06-24T11:24:50;7.25;;;4.80;;
52618;SDS011;38513;53.234;6.568;2023-06-24T11:27:23;8.77;;;5.38;;
52618;SDS011;38513;53.234;6.568;2023-06-24T11:29:51;7.47;;;4.93;;
52618;SDS011;38513;53.234;6.568;2023-06-24T11:32:17;7.20;;;4.70;;
52618;SDS011;38513;53.234;6.568;2023-06-24T11:34:43;8.02;;;5.57;;
52618;SDS011;38513;53.234;6.568;2023-06-24T11:37:13;9.43;;;5.63;;
52618;SDS011;38513;53.234;6.568;2023-06-24T11:39:39;8.40;;;6.00;;
52618;SDS011;38513;53.234;6.568;2023-06-24T11:42:08;7.97;;;5.43;;
52618;SDS011;38513;53.234;6.568;2023-06-24T11:44:35;8.40;;;6.20;;
52618;SDS011;38513;53.234;6.568;2023-06-24T11:47:08;9.70;;;5.43;;
52618;SDS011;38513;53.234;6.568;2023-06-24T11:49:55;8.73;;;5.67;;
52618;SDS011;38513;53.234;6.568;2023-06-24T11:55:01;8.13;;;5.05;;
52618;SDS011;38513;53.234;6.568;2023-06-24T12:00:13;7.07;;;4.15;;
52618;SDS011;38513;53.234;6.568;2023-06-24T12:02:40;8.43;;;4.40;;
52618;SDS011;38513;53.234;6.568;2023-06-24T12:05:06;7.22;;;4.65;;
52618;SDS011;38513;53.234;6.568;2023-06-24T12:07:32;6.63;;;3.80;;
52618;SDS011;38513;53.234;6.568;2023-06-24T12:09:59;8.05;;;3.88;;
52618;SDS011;38513;53.234;6.568;2023-06-24T12:12:25;7.22;;;4.10;;
52618;SDS011;38513;53.234;6.568;2023-06-24T12:14:51;8.70;;;4.63;;
52618;SDS011;38513;53.234;6.568;2023-06-24T12:17:17;7.88;;;4.07;;
52618;SDS011;38513;53.234;6.568;2023-06-24T12:19:43;8.15;;;4.45;;
52618;SDS011;38513;53.234;6.568;2023-06-24T12:22:10;8.20;;;4.55;;
52618;SDS011;38513;53.234;6.568;2023-06-24T12:24:36;7.13;;;4.27;;
52618;SDS011;38513;53.234;6.568;2023-06-24T12:27:02;7.45;;;4.55;;
52618;SDS011;38513;53.234;6.568;2023-06-24T12:29:28;9.68;;;4.90;;
52618;SDS011;38513;53.234;6.568;2023-06-24T12:31:55;8.73;;;4.90;;
52618;SDS011;38513;53.234;6.568;2023-06-24T12:34:21;8.30;;;4.47;;
52618;SDS011;38513;53.234;6.568;2023-06-24T12:36:47;7.43;;;3.90;;
52618;SDS011;38513;53.234;6.568;2023-06-24T12:39:13;8.60;;;3.80;;
52618;SDS011;38513;53.234;6.568;2023-06-24T12:41:39;8.68;;;4.38;;
52618;SDS011;38513;53.234;6.568;2023-06-24T12:44:05;7.72;;;4.18;;
52618;SDS011;38513;53.234;6.568;2023-06-24T12:46:31;6.20;;;3.77;;
52618;SDS011;38513;53.234;6.568;2023-06-24T12:48:57;6.85;;;3.78;;
52618;SDS011;38513;53.234;6.568;2023-06-24T12:51:23;7.50;;;4.57;;
52618;SDS011;38513;53.234;6.568;2023-06-24T12:53:52;7.65;;;4.07;;
52618;SDS011;38513;53.234;6.568;2023-06-24T12:56:18;6.90;;;4.40;;
52618;SDS011;38513;53.234;6.568;2023-06-24T12:58:44;8.88;;;4.15;;
52618;SDS011;38513;53.234;6.568;2023-06-24T13:01:10;8.55;;;4.40;;
52618;SDS011;38513;53.234;6.568;2023-06-24T13:03:36;7.07;;;4.28;;
52618;SDS011;38513;53.234;6.568;2023-06-24T13:06:02;6.20;;;3.88;;
52618;SDS011;38513;53.234;6.568;2023-06-24T13:08:29;7.63;;;4.38;;
52618;SDS011;38513;53.234;6.568;2023-06-24T13:10:56;8.57;;;4.70;;
52618;SDS011;38513;53.234;6.568;2023-06-24T13:13:22;9.50;;;4.45;;
52618;SDS011;38513;53.234;6.568;2023-06-24T13:15:48;8.00;;;4.57;;
52618;SDS011;38513;53.234;6.568;2023-06-24T13:18:14;8.13;;;4.25;;
52618;SDS011;38513;53.234;6.568;2023-06-24T13:20:40;7.17;;;4.10;;
52618;SDS011;38513;53.234;6.568;2023-06-24T13:23:06;7.60;;;4.28;;
52618;SDS011;38513;53.234;6.568;2023-06-24T13:25:32;8.55;;;4.45;;
52618;SDS011;38513;53.234;6.568;2023-06-24T13:27:59;8.13;;;5.07;;
52618;SDS011;38513;53.234;6.568;2023-06-24T13:30:25;12.15;;;5.55;;
52618;SDS011;38513;53.234;6.568;2023-06-24T13:32:52;7.78;;;5.45;;
52618;SDS011;38513;53.234;6.568;2023-06-24T13:35:18;10.02;;;5.40;;
52618;SDS011;38513;53.234;6.568;2023-06-24T13:37:44;8.35;;;4.70;;
52618;SDS011;38513;53.234;6.568;2023-06-24T13:40:10;8.18;;;4.20;;
52618;SDS011;38513;53.234;6.568;2023-06-24T13:42:36;8.82;;;4.57;;
52618;SDS011;38513;53.234;6.568;2023-06-24T13:45:03;6.72;;;3.53;;
52618;SDS011;38513;53.234;6.568;2023-06-24T13:47:29;6.30;;;3.60;;
52618;SDS011;38513;53.234;6.568;2023-06-24T13:49:55;6.38;;;3.60;;
52618;SDS011;38513;53.234;6.568;2023-06-24T13:52:24;8.20;;;3.63;;
52618;SDS011;38513;53.234;6.568;2023-06-24T13:54:50;6.32;;;3.42;;
52618;SDS011;38513;53.234;6.568;2023-06-24T13:57:17;9.32;;;3.58;;
52618;SDS011;38513;53.234;6.568;2023-06-24T13:59:43;7.22;;;3.50;;
52618;SDS011;38513;53.234;6.568;2023-06-24T14:02:09;7.35;;;3.40;;
52618;SDS011;38513;53.234;6.568;2023-06-24T14:04:36;8.63;;;3.92;;
52618;SDS011;38513;53.234;6.568;2023-06-24T14:07:05;7.55;;;3.85;;
52618;SDS011;38513;53.234;6.568;2023-06-24T14:09:31;5.95;;;3.67;;
52618;SDS011;38513;53.234;6.568;2023-06-24T14:11:57;6.47;;;3.63;;
52618;SDS011;38513;53.234;6.568;2023-06-24T14:14:23;7.22;;;3.75;;
52618;SDS011;38513;53.234;6.568;2023-06-24T14:16:49;8.07;;;3.78;;
52618;SDS011;38513;53.234;6.568;2023-06-24T14:19:16;6.63;;;3.30;;
52618;SDS011;38513;53.234;6.568;2023-06-24T14:21:42;5.93;;;3.40;;
52618;SDS011;38513;53.234;6.568;2023-06-24T14:24:08;6.43;;;3.38;;
52618;SDS011;38513;53.234;6.568;2023-06-24T14:26:36;11.32;;;6.32;;
52618;SDS011;38513;53.234;6.568;2023-06-24T14:29:02;10.15;;;4.75;;
52618;SDS011;38513;53.234;6.568;2023-06-24T14:31:29;11.05;;;6.90;;
52618;SDS011;38513;53.234;6.568;2023-06-24T14:33:55;11.98;;;6.93;;
52618;SDS011;38513;53.234;6.568;2023-06-24T14:36:21;9.55;;;5.93;;
52618;SDS011;38513;53.234;6.568;2023-06-24T14:38:48;10.57;;;5.50;;
52618;SDS011;38513;53.234;6.568;2023-06-24T14:41:14;10.07;;;5.93;;
52618;SDS011;38513;53.234;6.568;2023-06-24T14:43:40;11.68;;;7.15;;
52618;SDS011;38513;53.234;6.568;2023-06-24T14:46:06;10.63;;;6.57;;
52618;SDS011;38513;53.234;6.568;2023-06-24T14:48:32;10.57;;;5.65;;
52618;SDS011;38513;53.234;6.568;2023-06-24T14:50:58;9.25;;;5.63;;
52618;SDS011;38513;53.234;6.568;2023-06-24T14:53:24;9.05;;;5.43;;
52618;SDS011;38513;53.234;6.568;2023-06-24T14:55:50;11.20;;;6.13;;
52618;SDS011;38513;53.234;6.568;2023-06-24T14:58:16;8.63;;;5.20;;
52618;SDS011;38513;53.234;6.568;2023-06-24T15:00:42;12.20;;;6.15;;
52618;SDS011;38513;53.234;6.568;2023-06-24T15:03:08;7.97;;;5.10;;
52618;SDS011;38513;53.234;6.568;2023-06-24T15:05:35;8.85;;;5.75;;